Patria, New York
Current Conditions -  °F | °C
As of 1:55 AM on Friday 28 Nov 2014 (Local Time) from KNY0 Reporting Station
Overcast Overcast  
Wind Chill: 19°   Ceiling: 1000
Heat Index: 25°   Visibility: 10mi
Dew Point: 23°   Wind: 5mph
Humidity: 92%   Direction: 280°W
Pressure: 30.01"   Gusts: NA
Location:  42.612°N, 74.4753°W
Report Text: KNY0 280655Z AUTO 28004KT 10SM OVC010 M04/M05 A3001 RMK AO2 T10401051
Loading
Personal Weather Stations






























Interactive Weather Map New forecast layout! Learn more

10-Day Weather Forecast

Advertisements
Track Severe Weather on mobile